Time;durP1;ratioP1;P1;durP2;ratioP2;P2;SDS_P1;SDS_P2;PMS_P1;PMS_P2;Temp;Humidity;BMP_temperature;BMP_pressure;BME280_temperature;BME280_humidity;BME280_pressure;Samples;Min_cycle;Max_cycle;Signal;HPM_P1;HPM_P2
2022/01/04 00:01:01;;;;;;;6.57;3.20;;;;;;;10.63;100.00;97543.50;5023336;28;20037;-66
2022/01/04 00:03:26;;;;;;;8.02;3.60;;;;;;;10.66;100.00;97538.13;5018770;28;20206;-66
2022/01/04 00:05:51;;;;;;;7.68;3.33;;;;;;;10.61;100.00;97537.47;5020616;28;20091;-66
2022/01/04 00:08:17;;;;;;;8.85;3.08;;;;;;;10.62;100.00;97529.50;5023589;28;20221;-66
2022/01/04 00:10:42;;;;;;;5.07;2.88;;;;;;;10.62;100.00;97523.38;5014104;28;20022;-66
2022/01/04 00:13:23;;;;;;;5.13;3.13;;;;;;;10.64;100.00;97518.94;5004638;28;20023;-66
2022/01/04 00:15:56;;;;;;;7.18;2.95;;;;;;;10.65;100.00;97503.09;5011866;28;20343;-66
2022/01/04 00:18:23;;;;;;;14.45;3.78;;;;;;;10.61;100.00;97503.25;5008381;28;20022;-66
2022/01/04 00:20:49;;;;;;;9.35;2.92;;;;;;;10.62;100.00;97497.94;5004298;28;20060;-66
2022/01/04 00:23:16;;;;;;;7.28;3.42;;;;;;;10.64;100.00;97480.28;5004296;28;20038;-66
2022/01/04 00:25:42;;;;;;;6.63;3.13;;;;;;;10.57;100.00;97477.97;5004037;28;20097;-66
2022/01/04 00:28:10;;;;;;;11.02;3.80;;;;;;;10.60;100.00;97481.34;5004246;28;20022;-66
2022/01/04 00:30:38;;;;;;;8.65;3.63;;;;;;;10.59;100.00;97481.41;5012668;28;20026;-66
2022/01/04 00:33:05;;;;;;;8.35;3.60;;;;;;;10.55;100.00;97469.28;5004243;28;20026;-66
2022/01/04 00:35:31;;;;;;;7.53;3.83;;;;;;;10.58;100.00;97484.94;5005287;28;20018;-66
2022/01/04 00:37:57;;;;;;;11.02;4.00;;;;;;;10.48;100.00;97473.06;5012235;28;20072;-66
2022/01/04 00:40:24;;;;;;;9.02;4.30;;;;;;;10.54;100.00;97462.31;5004171;28;20082;-66
2022/01/04 00:42:49;;;;;;;5.95;3.25;;;;;;;10.53;100.00;97465.84;5021017;28;20064;-66
2022/01/04 00:45:15;;;;;;;9.82;4.32;;;;;;;10.55;100.00;97469.28;5019604;28;20029;-66
2022/01/04 00:50:28;;;;;;;5.00;2.90;;;;;;;10.53;100.00;97465.84;4978378;28;20367;-66
2022/01/04 00:52:53;;;;;;;6.18;3.15;;;;;;;10.53;100.00;97450.06;5023387;28;20309;-66
2022/01/04 00:55:19;;;;;;;7.10;3.78;;;;;;;10.44;100.00;97446.00;5022876;28;20029;-66
2022/01/04 00:57:44;;;;;;;8.05;3.83;;;;;;;10.47;100.00;97439.75;5021874;28;20028;-66
2022/01/04 01:00:12;;;;;;;5.75;3.40;;;;;;;10.40;100.00;97439.16;5017073;28;20030;-66
2022/01/04 01:02:38;;;;;;;8.90;3.30;;;;;;;10.43;100.00;97433.78;5008983;28;20326;-66
2022/01/04 01:05:05;;;;;;;13.88;3.90;;;;;;;10.53;100.00;97434.25;5015915;28;20026;-66
2022/01/04 01:07:30;;;;;;;7.90;3.17;;;;;;;10.52;100.00;97414.16;5014229;28;20073;-66
2022/01/04 01:10:17;;;;;;;7.03;3.17;;;;;;;10.53;100.00;97400.94;5007268;28;20026;-66
2022/01/04 01:12:43;;;;;;;11.40;3.92;;;;;;;10.46;100.00;97401.22;5007341;28;20085;-66
2022/01/04 01:15:09;;;;;;;6.38;3.22;;;;;;;10.42;100.00;97399.63;5010831;28;20033;-66
2022/01/04 01:17:34;;;;;;;11.30;3.58;;;;;;;10.43;100.00;97390.81;5025834;28;20017;-66
2022/01/04 01:20:01;;;;;;;6.72;3.22;;;;;;;10.42;100.00;97389.13;5026121;28;20089;-66
2022/01/04 01:22:26;;;;;;;7.07;3.53;;;;;;;10.43;100.00;97375.03;5026292;28;20021;-66
2022/01/04 01:24:52;;;;;;;6.38;3.38;;;;;;;10.51;100.00;97386.13;5025867;28;20072;-66
2022/01/04 01:27:18;;;;;;;6.18;2.90;;;;;;;10.54;100.00;97378.13;5026249;28;20068;-66
2022/01/04 01:29:43;;;;;;;5.90;3.33;;;;;;;10.53;100.00;97374.63;5026145;28;20021;-66
2022/01/04 01:32:09;;;;;;;9.23;3.88;;;;;;;10.50;100.00;97366.00;5014085;28;20098;-66
2022/01/04 01:34:34;;;;;;;8.40;3.47;;;;;;;10.48;100.00;97363.41;5010765;28;20368;-66
2022/01/04 01:37:00;;;;;;;9.43;3.38;;;;;;;10.42;100.00;97368.06;5024468;28;20097;-66
2022/01/04 01:39:25;;;;;;;9.73;2.83;;;;;;;10.37;100.00;97354.22;5024439;28;20010;-66
2022/01/04 01:41:51;;;;;;;4.88;3.03;;;;;;;10.40;100.00;97349.72;5014911;28;20018;-66
2022/01/04 01:44:16;;;;;;;11.05;3.50;;;;;;;10.42;100.00;97352.28;5006808;28;20029;-66
2022/01/04 01:46:42;;;;;;;6.15;3.00;;;;;;;10.38;100.00;97355.97;5006777;28;20022;-66
2022/01/04 01:49:08;;;;;;;9.48;3.53;;;;;;;10.39;100.00;97336.63;5006758;28;20022;-66
2022/01/04 01:51:33;;;;;;;6.88;3.00;;;;;;;10.37;100.00;97349.84;5006685;28;20022;-66
2022/01/04 01:54:00;;;;;;;6.13;3.17;;;;;;;10.39;100.00;97347.16;5006634;28;20030;-66
2022/01/04 01:56:26;;;;;;;7.57;3.38;;;;;;;10.37;100.00;97330.56;5006668;28;20025;-66
2022/01/04 01:58:55;;;;;;;9.23;3.70;;;;;;;10.29;100.00;97330.84;5006474;28;20089;-66
2022/01/04 02:01:21;;;;;;;6.78;3.40;;;;;;;10.36;100.00;97331.50;5010701;28;20018;-66
2022/01/04 02:03:46;;;;;;;12.82;3.03;;;;;;;10.36;100.00;97326.22;5011392;28;20026;-66
2022/01/04 02:06:12;;;;;;;6.05;3.28;;;;;;;10.31;100.00;97322.91;5007538;28;20024;-66
2022/01/04 02:08:37;;;;;;;7.15;3.45;;;;;;;10.29;100.00;97327.41;5006363;28;20022;-66
2022/01/04 02:11:03;;;;;;;7.63;3.80;;;;;;;10.27;100.00;97316.06;5006337;28;20022;-66
2022/01/04 02:13:29;;;;;;;7.53;3.55;;;;;;;10.27;100.00;97314.31;5006294;28;20026;-66
2022/01/04 02:15:55;;;;;;;7.13;3.25;;;;;;;10.34;100.00;97307.00;5015819;28;20076;-66
2022/01/04 02:18:21;;;;;;;6.95;3.35;;;;;;;10.28;100.00;97299.38;5023320;28;20021;-66
2022/01/04 02:20:46;;;;;;;7.40;3.78;;;;;;;10.38;100.00;97295.47;5020936;28;20021;-66
2022/01/04 02:23:12;;;;;;;9.25;3.38;;;;;;;10.37;100.00;97291.13;5006053;28;20069;-66
2022/01/04 02:25:37;;;;;;;9.65;3.63;;;;;;;10.31;100.00;97276.44;5005805;28;20042;-66
2022/01/04 02:28:03;;;;;;;14.73;3.35;;;;;;;10.39;100.00;97278.78;5008906;28;20042;-66
2022/01/04 02:30:29;;;;;;;7.05;3.47;;;;;;;10.29;100.00;97272.19;5023948;28;20017;-66
2022/01/04 02:32:55;;;;;;;6.82;3.30;;;;;;;10.29;100.00;97261.66;5021411;28;20085;-66
2022/01/04 02:35:24;;;;;;;6.35;3.00;;;;;;;10.35;100.00;97253.53;5024953;28;20209;-66
2022/01/04 02:37:53;;;;;;;7.03;3.30;;;;;;;10.24;100.00;97253.09;5023220;28;20021;-66
2022/01/04 02:40:18;;;;;;;4.72;2.63;;;;;;;10.25;100.00;97257.44;5025102;28;20367;-66
2022/01/04 02:42:44;;;;;;;8.15;3.17;;;;;;;10.34;100.00;97249.16;5024807;28;20022;-66
2022/01/04 02:45:10;;;;;;;8.48;3.45;;;;;;;10.29;100.00;97245.88;5024765;28;20342;-66
2022/01/04 02:47:35;;;;;;;8.23;2.80;;;;;;;10.16;100.00;97244.66;5024737;28;20018;-66
2022/01/04 02:50:01;;;;;;;4.75;2.70;;;;;;;10.18;100.00;97232.28;5006932;28;20050;-66
2022/01/04 02:52:27;;;;;;;7.50;3.00;;;;;;;10.18;100.00;97217.38;5005586;28;20073;-66
2022/01/04 02:54:53;;;;;;;4.05;2.60;;;;;;;10.31;100.00;97221.22;5024211;28;20244;-66
2022/01/04 02:57:19;;;;;;;7.43;2.40;;;;;;;10.22;100.00;97218.13;5024458;28;20017;-66
2022/01/04 02:59:44;;;;;;;11.25;2.85;;;;;;;10.25;100.00;97202.22;5017109;28;20065;-66
2022/01/04 03:02:10;;;;;;;13.18;3.30;;;;;;;10.29;100.00;97204.63;5016181;28;20018;-66
2022/01/04 03:04:35;;;;;;;8.23;3.15;;;;;;;10.21;100.00;97200.63;5024422;28;20029;-66
2022/01/04 03:07:02;;;;;;;7.47;3.03;;;;;;;10.28;100.00;97192.41;5024403;28;20317;-66
2022/01/04 03:09:27;;;;;;;6.47;3.08;;;;;;;10.20;100.00;97177.88;5012841;28;20264;-66
2022/01/04 03:11:53;;;;;;;5.97;2.97;;;;;;;10.19;100.00;97179.66;5005207;28;20022;-66
2022/01/04 03:14:18;;;;;;;5.07;2.47;;;;;;;10.17;100.00;97172.75;5005154;28;20085;-66
2022/01/04 03:16:44;;;;;;;6.18;2.90;;;;;;;10.15;100.00;97171.94;5020701;28;20025;-66
2022/01/04 03:19:10;;;;;;;5.38;2.78;;;;;;;10.13;100.00;97155.41;5012807;28;20298;-66
2022/01/04 03:21:40;;;;;;;8.57;2.70;;;;;;;10.17;100.00;97152.59;5005270;28;20022;-66
2022/01/04 03:24:08;;;;;;;5.93;3.35;;;;;;;10.17;100.00;97141.19;5004927;28;20040;-66
2022/01/04 03:26:34;;;;;;;7.30;3.00;;;;;;;10.19;100.00;97136.75;5005944;28;20113;-66
2022/01/04 03:29:00;;;;;;;3.92;2.58;;;;;;;10.13;100.00;97129.09;5004919;28;20045;-66
2022/01/04 03:31:29;;;;;;;4.65;2.63;;;;;;;10.14;100.00;97122.91;5009342;28;20040;-66
2022/01/04 03:33:54;;;;;;;5.35;2.30;;;;;;;10.13;100.00;97118.59;5023992;28;20022;-66
2022/01/04 03:36:24;;;;;;;5.95;2.13;;;;;;;10.11;100.00;97115.16;5022315;28;20024;-66
2022/01/04 03:38:51;;;;;;;10.85;2.58;;;;;;;10.14;100.00;97104.53;5021266;28;20041;-66
2022/01/04 03:41:18;;;;;;;5.70;2.08;;;;;;;10.12;100.00;97116.88;5022502;28;20030;-66
2022/01/04 03:43:43;;;;;;;4.15;2.30;;;;;;;10.06;100.00;97096.09;5006464;28;20018;-66
2022/01/04 03:46:09;;;;;;;5.43;2.83;;;;;;;10.10;100.00;97102.94;5005781;28;20088;-66
2022/01/04 03:48:35;;;;;;;5.43;2.17;;;;;;;10.08;100.00;97099.50;5004643;28;20061;-66
2022/01/04 03:51:01;;;;;;;9.43;2.38;;;;;;;10.11;100.00;97099.38;5004535;28;20041;-66
2022/01/04 03:53:26;;;;;;;4.45;2.45;;;;;;;10.15;100.00;97096.56;5004636;28;20022;-66
2022/01/04 03:55:52;;;;;;;3.70;2.08;;;;;;;10.15;100.00;97085.19;5004567;28;20018;-66
2022/01/04 03:58:17;;;;;;;4.03;2.08;;;;;;;10.19;100.00;97085.00;5004742;28;20014;-66
2022/01/04 04:00:43;;;;;;;4.35;2.00;;;;;;;10.20;100.00;97077.97;5006375;28;20022;-66
2022/01/04 04:03:09;;;;;;;3.13;1.77;;;;;;;10.19;100.00;97076.28;5005064;28;20049;-66
2022/01/04 04:05:34;;;;;;;3.95;2.00;;;;;;;10.20;100.00;97059.56;5017837;28;20033;-66
2022/01/04 04:07:59;;;;;;;2.63;1.55;;;;;;;10.15;100.00;97053.66;5007829;28;20026;-66
2022/01/04 04:10:25;;;;;;;2.90;1.50;;;;;;;10.20;100.00;97049.06;5004831;28;20045;-66
2022/01/04 04:12:50;;;;;;;6.40;1.50;;;;;;;10.20;100.00;97046.44;5004882;28;20026;-66
2022/01/04 04:15:16;;;;;;;1.90;1.35;;;;;;;10.16;100.00;97039.59;5015646;28;20048;-66
2022/01/04 04:17:44;;;;;;;5.07;1.48;;;;;;;10.23;100.00;97041.91;5015544;28;20318;-66
2022/01/04 04:20:09;;;;;;;2.92;1.50;;;;;;;10.26;100.00;97025.13;5005268;28;20038;-66
2022/01/04 04:22:35;;;;;;;3.97;1.13;;;;;;;10.30;100.00;97016.19;5021779;28;20032;-66
2022/01/04 04:25:00;;;;;;;2.58;1.17;;;;;;;10.18;100.00;97011.44;5012390;28;20098;-66
2022/01/04 04:27:26;;;;;;;1.58;0.95;;;;;;;10.18;100.00;97012.31;5015583;28;20030;-66
2022/01/04 04:29:51;;;;;;;2.30;1.20;;;;;;;10.20;100.00;97004.38;5009691;28;20018;-66
2022/01/04 04:32:16;;;;;;;1.65;1.20;;;;;;;10.21;100.00;97000.81;5012327;28;20026;-66
2022/01/04 04:34:42;;;;;;;6.65;1.17;;;;;;;10.28;100.00;96999.59;5004639;28;20073;-66
2022/01/04 04:37:07;;;;;;;1.33;1.00;;;;;;;10.24;100.00;96982.28;5006255;28;20026;-66
2022/01/04 04:39:33;;;;;;;1.17;1.00;;;;;;;10.26;100.00;96983.06;5004990;28;20079;-66
2022/01/04 04:41:58;;;;;;;3.20;1.27;;;;;;;10.27;100.00;96984.75;5007208;28;20100;-66
2022/01/04 04:44:24;;;;;;;4.38;1.20;;;;;;;10.27;100.00;96979.50;5026779;28;20025;-66
2022/01/04 04:46:49;;;;;;;2.65;1.10;;;;;;;10.29;100.00;96968.00;5027714;28;20072;-66
2022/01/04 04:49:15;;;;;;;2.42;0.90;;;;;;;10.33;100.00;96974.84;5008483;28;20081;-66
2022/01/04 04:51:41;;;;;;;1.65;1.10;;;;;;;10.36;100.00;96966.81;5023023;28;20058;-66
2022/01/04 04:54:06;;;;;;;1.92;0.90;;;;;;;10.34;100.00;96962.53;5024260;28;20022;-66
2022/01/04 04:56:34;;;;;;;1.45;0.95;;;;;;;10.24;100.00;96958.59;5015018;28;20107;-66
2022/01/04 04:58:59;;;;;;;1.42;1.00;;;;;;;10.34;100.00;96955.50;5018845;28;20348;-66
2022/01/04 05:01:25;;;;;;;1.25;0.80;;;;;;;10.28;100.00;96957.53;5027089;28;20026;-66
2022/01/04 05:03:52;;;;;;;1.10;0.60;;;;;;;10.28;100.00;96947.03;5026881;28;20028;-66
2022/01/04 05:06:18;;;;;;;1.20;0.88;;;;;;;10.33;100.00;96937.16;5024059;28;20041;-67
2022/01/04 05:08:43;;;;;;;2.00;1.02;;;;;;;10.35;100.00;96936.16;5020263;28;20018;-68
2022/01/04 05:11:09;;;;;;;1.38;0.77;;;;;;;10.42;100.00;96932.38;5027082;28;20030;-68
2022/01/04 05:13:34;;;;;;;0.88;0.75;;;;;;;10.45;100.00;96915.56;5027070;28;20088;-68
2022/01/04 05:15:59;;;;;;;9.55;1.20;;;;;;;10.38;100.00;96924.69;5027013;28;20026;-68
2022/01/04 05:18:25;;;;;;;1.20;0.80;;;;;;;10.41;100.00;96924.53;5026906;28;20081;-68
2022/01/04 05:20:50;;;;;;;2.10;1.25;;;;;;;10.46;100.00;96927.78;5026854;28;20397;-68
2022/01/04 05:23:16;;;;;;;1.40;0.80;;;;;;;10.43;100.00;96901.63;5026831;28;20045;-68
2022/01/04 05:25:41;;;;;;;4.63;1.20;;;;;;;10.47;100.00;96903.19;5026507;28;20029;-68
2022/01/04 05:28:08;;;;;;;1.63;0.98;;;;;;;10.48;100.00;96904.91;5026772;28;20025;-68
2022/01/04 05:30:33;;;;;;;1.92;1.00;;;;;;;10.44;100.00;96884.94;5026519;28;20028;-68
2022/01/04 05:32:58;;;;;;;4.70;1.27;;;;;;;10.43;100.00;96881.47;5026660;28;20213;-68
2022/01/04 05:35:24;;;;;;;1.58;0.88;;;;;;;10.51;100.00;96873.22;5026624;28;20068;-68
2022/01/04 05:37:49;;;;;;;1.65;1.27;;;;;;;10.49;100.00;96864.53;5026483;28;20032;-68
2022/01/04 05:40:14;;;;;;;1.95;1.02;;;;;;;10.48;100.00;96862.84;5026751;28;20045;-68
2022/01/04 05:42:40;;;;;;;1.65;1.02;;;;;;;10.46;100.00;96867.31;5026465;28;20209;-68
2022/01/04 05:45:06;;;;;;;1.77;1.23;;;;;;;10.54;100.00;96867.81;5026441;28;20033;-68
2022/01/04 05:47:31;;;;;;;1.67;0.98;;;;;;;10.51;100.00;96867.97;5026378;28;20089;-68
2022/01/04 05:49:57;;;;;;;1.58;1.08;;;;;;;10.54;100.00;96857.28;5026417;28;20279;-68
2022/01/04 05:52:22;;;;;;;5.25;1.08;;;;;;;10.50;100.00;96860.97;5026331;28;20068;-68
2022/01/04 05:54:49;;;;;;;2.50;1.10;;;;;;;10.42;100.00;96863.13;5026220;28;20022;-68
2022/01/04 05:57:16;;;;;;;2.95;1.15;;;;;;;10.45;100.00;96863.81;5026184;28;20068;-68
2022/01/04 05:59:42;;;;;;;2.30;1.05;;;;;;;10.50;100.00;96860.97;5026034;28;20025;-68
2022/01/04 06:02:07;;;;;;;3.30;1.50;;;;;;;10.45;100.00;96853.28;5026127;28;20121;-68
2022/01/04 06:04:33;;;;;;;2.00;1.15;;;;;;;10.44;100.00;96848.97;5026069;28;20025;-68
2022/01/04 06:06:59;;;;;;;3.05;1.35;;;;;;;10.38;100.00;96858.94;5025909;28;20017;-68
2022/01/04 06:09:28;;;;;;;2.85;1.42;;;;;;;10.42;100.00;96837.69;5025955;28;20025;-68
2022/01/04 06:17:06;;;;;;;2.13;1.50;;;;;;;10.42;100.00;96827.16;5024897;28;20036;-68
2022/01/04 06:19:32;;;;;;;1.92;1.23;;;;;;;10.41;100.00;96824.59;5025679;28;20026;-68
2022/01/04 06:21:58;;;;;;;2.08;1.17;;;;;;;10.43;100.00;96817.47;5025753;28;20022;-68
2022/01/04 06:24:23;;;;;;;3.20;1.27;;;;;;;10.44;100.00;96819.22;5025840;28;20025;-68
2022/01/04 06:26:48;;;;;;;5.05;1.55;;;;;;;10.48;100.00;96805.81;5025515;28;20037;-68
2022/01/04 06:29:14;;;;;;;2.55;1.17;;;;;;;10.50;100.00;96809.22;5025564;28;20344;-68
2022/01/04 06:31:40;;;;;;;2.55;1.10;;;;;;;10.46;100.00;96806.81;5025510;28;20030;-68
2022/01/04 06:34:05;;;;;;;1.83;1.33;;;;;;;10.42;100.00;96800.88;5025532;28;20034;-68
2022/01/04 06:36:31;;;;;;;4.13;1.50;;;;;;;10.51;100.00;96794.31;5025426;28;20036;-68
2022/01/04 06:38:56;;;;;;;3.08;1.15;;;;;;;10.49;100.00;96797.00;5025351;28;20338;-68
2022/01/04 06:41:22;;;;;;;2.90;1.20;;;;;;;10.50;100.00;96790.81;5025336;28;20033;-68
2022/01/04 06:43:47;;;;;;;4.45;1.33;;;;;;;10.49;100.00;96796.16;5025332;28;20030;-68
2022/01/04 06:46:13;;;;;;;2.75;1.50;;;;;;;10.47;100.00;96771.69;5025263;28;20032;-68
2022/01/04 06:48:42;;;;;;;3.05;1.20;;;;;;;10.52;100.00;96775.81;5024185;28;20088;-68
2022/01/04 06:51:09;;;;;;;1.65;1.02;;;;;;;10.52;100.00;96781.09;5025212;28;20022;-68
2022/01/04 06:53:34;;;;;;;3.88;1.30;;;;;;;10.54;100.00;96770.50;5025115;28;20026;-68
2022/01/04 06:56:00;;;;;;;2.08;1.00;;;;;;;10.54;100.00;96765.22;5025135;28;20040;-68
2022/01/04 06:58:26;;;;;;;3.83;1.33;;;;;;;10.55;100.00;96753.78;5024988;28;20237;-68
2022/01/04 07:00:52;;;;;;;2.05;1.13;;;;;;;10.59;100.00;96756.19;5025259;28;20041;-68
2022/01/04 07:03:17;;;;;;;2.60;1.50;;;;;;;10.57;100.00;96752.75;5025002;28;20085;-68
2022/01/04 07:05:43;;;;;;;4.03;1.30;;;;;;;10.57;100.00;96760.66;5024516;28;20056;-68
2022/01/04 07:08:08;;;;;;;3.58;1.33;;;;;;;10.67;100.00;96753.19;5024903;28;20225;-68
2022/01/04 07:10:34;;;;;;;5.53;1.48;;;;;;;10.67;100.00;96750.56;5024842;28;20032;-68
2022/01/04 07:12:59;;;;;;;2.38;1.17;;;;;;;10.69;100.00;96767.09;5024799;28;20029;-68
2022/01/04 07:15:24;;;;;;;1.80;1.00;;;;;;;10.65;100.00;96755.03;5024826;28;20025;-68
2022/01/04 07:17:50;;;;;;;2.22;1.25;;;;;;;10.63;100.00;96757.72;5024650;28;20053;-68
2022/01/04 07:20:15;;;;;;;1.67;1.00;;;;;;;10.62;100.00;96755.16;5024688;28;20030;-68
2022/01/04 07:22:41;;;;;;;2.97;1.10;;;;;;;10.66;100.00;96756.72;5024893;28;20037;-68
2022/01/04 07:25:08;;;;;;;2.28;1.15;;;;;;;10.75;100.00;96751.88;5024175;28;20396;-68
2022/01/04 07:27:33;;;;;;;1.60;0.95;;;;;;;10.77;100.00;96754.41;5023761;28;20030;-68
2022/01/04 07:29:59;;;;;;;2.85;1.20;;;;;;;10.74;100.00;96744.03;5023774;28;20033;-68
2022/01/04 07:32:25;;;;;;;2.47;1.17;;;;;;;10.80;100.00;96749.00;5023765;28;20026;-68
2022/01/04 07:34:51;;;;;;;1.80;0.98;;;;;;;10.72;100.00;96745.88;5023666;28;20051;-68
2022/01/04 07:37:16;;;;;;;2.10;1.10;;;;;;;10.74;100.00;96738.78;5023652;28;20037;-68
2022/01/04 07:39:42;;;;;;;2.53;1.15;;;;;;;10.68;100.00;96739.09;5023562;28;20085;-68
2022/01/04 07:42:07;;;;;;;1.77;1.00;;;;;;;10.66;100.00;96743.56;5023603;28;20026;-68
2022/01/04 07:44:33;;;;;;;1.83;1.40;;;;;;;10.66;100.00;96735.66;5023819;28;20209;-68
2022/01/04 07:46:59;;;;;;;5.97;1.10;;;;;;;10.66;100.00;96730.41;5023547;28;20037;-68
2022/01/04 07:49:24;;;;;;;1.90;0.88;;;;;;;10.77;100.00;96728.09;5023483;28;20025;-68
2022/01/04 07:51:50;;;;;;;3.25;1.10;;;;;;;10.70;100.00;96717.03;5023455;28;20027;-68
2022/01/04 07:54:15;;;;;;;2.45;1.13;;;;;;;10.75;100.00;96707.13;5023433;28;20026;-68
2022/01/04 07:56:40;;;;;;;2.42;1.17;;;;;;;10.76;100.00;96708.00;5023407;28;20040;-68
2022/01/04 07:59:06;;;;;;;2.15;1.15;;;;;;;10.77;100.00;96692.13;5020811;28;20338;-68
2022/01/04 08:01:31;;;;;;;2.15;1.10;;;;;;;10.77;100.00;96701.78;5014586;28;20025;-68
2022/01/04 08:03:57;;;;;;;1.50;0.93;;;;;;;10.75;100.00;96703.66;5013519;28;20217;-68
2022/01/04 08:06:23;;;;;;;3.35;1.40;;;;;;;10.76;100.00;96694.84;5013810;28;20034;-68
2022/01/04 08:08:49;;;;;;;2.40;1.25;;;;;;;10.73;100.00;96679.22;5011999;28;20026;-68
2022/01/04 08:11:14;;;;;;;3.08;1.55;;;;;;;10.64;100.00;96674.41;5013826;28;20056;-68
2022/01/04 08:13:39;;;;;;;4.43;1.17;;;;;;;10.69;100.00;96682.91;5013308;28;20022;-68
2022/01/04 08:16:05;;;;;;;2.47;1.08;;;;;;;10.73;100.00;96668.69;5012077;28;20383;-68
2022/01/04 08:18:30;;;;;;;6.32;1.85;;;;;;;10.78;100.00;96671.91;5015213;28;20034;-68
2022/01/04 08:20:57;;;;;;;2.15;1.50;;;;;;;10.73;100.00;96673.94;5016219;28;20344;-68
2022/01/04 08:23:25;;;;;;;3.03;1.73;;;;;;;10.75;100.00;96682.59;5007839;28;20046;-68
2022/01/04 08:25:51;;;;;;;3.25;1.35;;;;;;;10.77;100.00;96675.47;4967736;28;1142728;-68
2022/01/04 08:28:16;;;;;;;3.05;1.45;;;;;;;10.75;100.00;96661.53;5008225;28;20100;-68
2022/01/04 08:30:43;;;;;;;2.92;1.42;;;;;;;10.77;100.00;96670.22;5008198;28;20034;-68
2022/01/04 08:33:09;;;;;;;4.32;1.42;;;;;;;10.76;100.00;96658.00;5008147;28;20018;-67
2022/01/04 08:35:35;;;;;;;4.68;1.23;;;;;;;10.74;100.00;96654.59;5021410;28;20108;-67
2022/01/04 08:38:00;;;;;;;3.92;1.40;;;;;;;10.78;100.00;96650.88;5027612;28;20034;-67
2022/01/04 08:40:26;;;;;;;2.55;1.40;;;;;;;10.77;100.00;96664.97;5027637;28;20022;-67
2022/01/04 08:42:51;;;;;;;2.22;1.08;;;;;;;10.73;100.00;96653.72;5014164;28;20093;-67
2022/01/04 08:45:17;;;;;;;8.98;1.77;;;;;;;10.76;100.00;96652.75;5007630;28;20041;-67
2022/01/04 08:47:43;;;;;;;1.65;1.20;;;;;;;10.69;100.00;96646.06;5007390;28;20045;-67
2022/01/04 08:50:11;;;;;;;2.70;1.40;;;;;;;10.74;100.00;96646.69;5007827;28;20376;-67
2022/01/04 08:52:37;;;;;;;3.28;1.30;;;;;;;10.70;100.00;96632.00;5007960;28;20112;-67
2022/01/04 08:55:03;;;;;;;6.32;1.45;;;;;;;10.74;100.00;96644.94;5007545;28;20253;-67
2022/01/04 08:57:29;;;;;;;2.35;1.33;;;;;;;10.75;100.00;96643.13;5007548;28;20033;-67
2022/01/04 08:59:55;;;;;;;2.38;1.40;;;;;;;10.78;100.00;96635.09;5007655;28;20026;-67
2022/01/04 09:02:22;;;;;;;5.90;1.73;;;;;;;10.82;100.00;96620.81;5007834;28;20026;-67
2022/01/04 09:04:47;;;;;;;3.05;1.45;;;;;;;10.82;100.00;96620.81;5007564;28;20026;-67
2022/01/04 09:07:13;;;;;;;2.70;1.27;;;;;;;10.84;100.00;96618.97;5007533;28;20093;-67
2022/01/04 09:09:39;;;;;;;3.25;1.60;;;;;;;10.88;100.00;96615.25;5007705;28;20026;-67
2022/01/04 09:12:05;;;;;;;3.90;1.75;;;;;;;10.95;100.00;96627.19;5007470;28;20069;-67
2022/01/04 09:14:43;;;;;;;2.55;1.40;;;;;;;10.92;100.00;96622.91;5007419;28;20368;-67
2022/01/04 09:19:54;;;;;;;1.42;1.10;;;;;;;10.93;100.00;96639.56;5007321;28;20068;-67
2022/01/04 09:22:24;;;;;;;6.57;1.45;;;;;;;10.96;100.00;96639.41;5007258;28;20053;-67
2022/01/04 09:24:49;;;;;;;2.40;1.27;;;;;;;11.02;100.00;96612.75;5006975;28;20499;-67
2022/01/04 09:27:15;;;;;;;2.60;1.42;;;;;;;11.05;100.00;96620.50;5007415;28;20026;-67
2022/01/04 09:29:40;;;;;;;3.30;1.30;;;;;;;11.01;100.00;96618.94;5006695;28;20250;-67
2022/01/04 09:32:06;;;;;;;5.07;1.40;;;;;;;11.02;100.00;96596.97;5007098;28;20089;-67
2022/01/04 09:34:32;;;;;;;2.30;1.35;;;;;;;11.01;100.00;96626.81;5007246;28;20093;-67
2022/01/04 09:36:58;;;;;;;6.57;1.58;;;;;;;11.08;100.00;96622.97;5006973;28;20318;-67
2022/01/04 09:39:24;;;;;;;2.58;1.20;;;;;;;11.07;100.00;96631.78;5006841;28;20025;-67
2022/01/04 09:41:52;;;;;;;3.60;1.58;;;;;;;11.10;100.00;96631.59;5006921;28;20214;-67
2022/01/04 09:44:18;;;;;;;1.95;1.30;;;;;;;11.13;100.00;96634.09;5006846;28;20025;-67
2022/01/04 09:46:44;;;;;;;2.60;1.35;;;;;;;11.09;100.00;96629.91;5006795;28;20022;-67
2022/01/04 09:49:11;;;;;;;2.15;1.40;;;;;;;11.01;100.00;96613.66;5006770;28;20022;-67
2022/01/04 09:51:39;;;;;;;6.78;1.42;;;;;;;11.05;100.00;96615.22;5006729;28;20217;-67
2022/01/04 09:54:05;;;;;;;3.03;1.48;;;;;;;11.11;100.00;96622.81;5006936;28;20286;-67
2022/01/04 09:56:31;;;;;;;4.93;1.20;;;;;;;11.14;100.00;96642.84;5006628;28;20026;-67
2022/01/04 09:58:56;;;;;;;3.75;1.27;;;;;;;11.17;100.00;96637.41;5006516;28;20022;-67
2022/01/04 10:01:25;;;;;;;2.33;1.50;;;;;;;11.20;100.00;96637.25;5006539;28;20029;-67
2022/01/04 10:03:50;;;;;;;4.18;1.70;;;;;;;11.09;100.00;96627.28;5006470;28;20093;-67
2022/01/04 10:06:16;;;;;;;5.55;1.55;;;;;;;11.08;100.00;96633.50;5006457;28;20026;-67
2022/01/04 10:08:55;;;;;;;5.70;1.30;;;;;;;11.16;100.00;96639.19;5006412;28;20019;-67
2022/01/04 10:11:42;;;;;;;2.95;1.40;;;;;;;11.17;100.00;96617.19;5006639;28;20317;-67
2022/01/04 10:14:29;;;;;;;7.80;1.13;;;;;;;11.24;100.00;96613.31;5006285;28;20026;-67
2022/01/04 10:16:57;;;;;;;1.65;1.00;;;;;;;11.20;100.00;96609.13;5006208;28;20229;-67
2022/01/04 10:19:31;;;;;;;3.72;1.58;;;;;;;11.22;100.00;96609.91;5006363;28;20046;-67
2022/01/04 10:22:27;;;;;;;2.88;1.30;;;;;;;11.24;100.00;96608.03;5006436;28;20313;-67
2022/01/04 10:25:01;;;;;;;1.67;1.10;;;;;;;11.26;100.00;96606.16;5006043;28;20401;-67
2022/01/04 10:27:37;;;;;;;1.65;1.05;;;;;;;11.27;100.00;96612.28;5005982;28;20093;-67
2022/01/04 10:30:11;;;;;;;6.35;1.75;;;;;;;11.27;100.00;96602.63;5006054;28;20287;-67
2022/01/04 10:32:49;;;;;;;5.32;1.55;;;;;;;11.33;100.00;96623.31;5005893;28;20022;-67
2022/01/04 10:35:38;;;;;;;3.13;1.20;;;;;;;11.29;100.00;96606.00;5006133;28;20237;-67
2022/01/04 10:38:24;;;;;;;3.97;1.83;;;;;;;11.26;100.00;96607.97;5005741;28;20073;-67
2022/01/04 10:41:02;;;;;;;3.95;1.40;;;;;;;11.25;100.00;96604.47;5004984;28;20030;-67
2022/01/04 10:43:40;;;;;;;2.75;1.45;;;;;;;11.29;100.00;96595.47;5005728;28;20018;-67
2022/01/04 10:46:07;;;;;;;2.60;1.42;;;;;;;11.27;100.00;96594.72;5005709;28;20030;-67
2022/01/04 10:48:41;;;;;;;2.83;1.58;;;;;;;11.25;100.00;96600.97;5005728;28;20073;-67
2022/01/04 10:51:14;;;;;;;1.80;1.23;;;;;;;11.23;100.00;96605.50;5005549;28;20023;-67
2022/01/04 10:54:00;;;;;;;5.45;1.50;;;;;;;11.24;100.00;96602.78;5005853;28;20027;-67
2022/01/04 10:56:31;;;;;;;4.57;1.40;;;;;;;11.27;100.00;96607.88;5005493;28;20022;-67
2022/01/04 10:58:59;;;;;;;1.50;1.05;;;;;;;11.23;100.00;96623.94;5005363;28;20022;-67
2022/01/04 11:01:42;;;;;;;1.55;1.27;;;;;;;11.20;100.00;96626.72;5005389;28;20256;-67
2022/01/04 11:04:13;;;;;;;3.67;1.30;;;;;;;11.28;100.00;96633.28;5005636;28;20333;-67
2022/01/04 11:06:40;;;;;;;3.63;1.20;;;;;;;11.30;100.00;96649.84;5005542;28;20317;-67
2022/01/04 11:09:07;;;;;;;2.28;1.17;;;;;;;11.19;100.00;96646.91;5006081;28;20225;-67
2022/01/04 11:11:33;;;;;;;4.75;1.27;;;;;;;11.13;100.00;96657.78;5014417;28;20017;-67
2022/01/04 11:13:59;;;;;;;1.80;1.20;;;;;;;11.07;100.00;96665.16;5018289;28;20017;-67
2022/01/04 11:16:26;;;;;;;3.17;1.63;;;;;;;11.02;100.00;96659.28;5006471;28;20025;-67
2022/01/04 11:18:53;;;;;;;2.03;0.88;;;;;;;10.94;100.00;96680.72;5018187;28;20018;-67
2022/01/04 11:21:24;;;;;;;3.88;1.63;;;;;;;10.88;100.00;96679.28;5013205;28;20021;-67
2022/01/04 11:23:51;;;;;;;2.20;0.80;;;;;;;10.70;100.00;96689.88;5014460;28;20056;-67
2022/01/04 11:26:17;;;;;;;1.42;0.50;;;;;;;10.80;100.00;96701.66;5013067;28;20042;-68
2022/01/04 11:28:46;;;;;;;1.00;0.50;;;;;;;10.57;100.00;96689.63;5012436;28;20213;-68
2022/01/04 11:31:22;;;;;;;0.47;0.38;;;;;;;10.48;100.00;96716.38;5015090;28;20332;-68
2022/01/04 11:34:12;;;;;;;0.25;0.25;;;;;;;10.26;100.00;96726.28;5012357;28;20326;-68